Terminal Aerodrome Forecast
Issued by NWS

Home | Current Version | Previous Version | Text Only | Print | Product List | Glossary Off
Versions: 1 2 3 4 5 6 7 8 9 10 11 12 13 14 15 16 17

706
FTUS43 KABR 090702 AAA
TAFMBG
TAF AMD
KMBG 090702Z 0907/1006 34012KT P6SM BKN250
     FM090900 32009KT P6SM SCT250
     FM091700 27007KT P6SM FEW250
     FM100200 29011KT P6SM FEW250=

USA.gov is the U.S. government's official web portal to all federal, state and local government web resources and services.